sensor_id;sensor_type;location;lat;lon;timestamp;P1;durP1;ratioP1;P2;durP2;ratioP2
50002;SDS011;35889;51.442;6.408;2022-11-20T00:00:48;1.00;;;1.00;;
50002;SDS011;35889;51.442;6.408;2022-11-20T00:03:14;1.00;;;1.00;;
50002;SDS011;35889;51.442;6.408;2022-11-20T00:05:40;0.90;;;0.90;;
50002;SDS011;35889;51.442;6.408;2022-11-20T00:08:05;1.05;;;1.05;;
50002;SDS011;35889;51.442;6.408;2022-11-20T00:10:35;1.00;;;1.00;;
50002;SDS011;35889;51.442;6.408;2022-11-20T00:13:02;1.00;;;1.00;;
50002;SDS011;35889;51.442;6.408;2022-11-20T00:15:27;0.90;;;0.90;;
50002;SDS011;35889;51.442;6.408;2022-11-20T00:17:52;0.98;;;0.98;;
50002;SDS011;35889;51.442;6.408;2022-11-20T00:20:18;0.90;;;0.90;;
50002;SDS011;35889;51.442;6.408;2022-11-20T00:22:43;1.00;;;1.00;;
50002;SDS011;35889;51.442;6.408;2022-11-20T00:25:09;0.90;;;0.90;;
50002;SDS011;35889;51.442;6.408;2022-11-20T00:27:34;1.10;;;1.10;;
50002;SDS011;35889;51.442;6.408;2022-11-20T00:30:00;1.10;;;1.10;;
50002;SDS011;35889;51.442;6.408;2022-11-20T00:32:26;1.00;;;1.00;;
50002;SDS011;35889;51.442;6.408;2022-11-20T00:34:51;1.10;;;1.10;;
50002;SDS011;35889;51.442;6.408;2022-11-20T00:37:19;0.90;;;0.90;;
50002;SDS011;35889;51.442;6.408;2022-11-20T00:39:44;0.95;;;0.95;;
50002;SDS011;35889;51.442;6.408;2022-11-20T00:42:10;1.10;;;1.10;;
50002;SDS011;35889;51.442;6.408;2022-11-20T00:44:35;1.00;;;1.00;;
50002;SDS011;35889;51.442;6.408;2022-11-20T00:47:01;1.00;;;1.00;;
50002;SDS011;35889;51.442;6.408;2022-11-20T00:49:26;0.90;;;0.90;;
50002;SDS011;35889;51.442;6.408;2022-11-20T00:51:51;1.00;;;1.00;;
50002;SDS011;35889;51.442;6.408;2022-11-20T00:54:17;1.10;;;1.10;;
50002;SDS011;35889;51.442;6.408;2022-11-20T00:56:42;1.00;;;1.00;;
50002;SDS011;35889;51.442;6.408;2022-11-20T00:59:08;1.00;;;1.00;;
50002;SDS011;35889;51.442;6.408;2022-11-20T01:01:34;1.00;;;1.00;;
50002;SDS011;35889;51.442;6.408;2022-11-20T01:04:01;1.00;;;1.00;;
50002;SDS011;35889;51.442;6.408;2022-11-20T01:06:30;1.00;;;1.00;;
50002;SDS011;35889;51.442;6.408;2022-11-20T01:08:58;0.95;;;0.95;;
50002;SDS011;35889;51.442;6.408;2022-11-20T01:11:28;1.00;;;1.00;;
50002;SDS011;35889;51.442;6.408;2022-11-20T01:13:56;0.80;;;0.80;;
50002;SDS011;35889;51.442;6.408;2022-11-20T01:16:23;0.90;;;0.90;;
50002;SDS011;35889;51.442;6.408;2022-11-20T01:18:52;1.00;;;1.00;;
50002;SDS011;35889;51.442;6.408;2022-11-20T01:21:24;1.00;;;1.00;;
50002;SDS011;35889;51.442;6.408;2022-11-20T01:23:52;1.10;;;1.10;;
50002;SDS011;35889;51.442;6.408;2022-11-20T01:26:18;1.00;;;1.00;;
50002;SDS011;35889;51.442;6.408;2022-11-20T01:28:45;0.98;;;0.98;;
50002;SDS011;35889;51.442;6.408;2022-11-20T01:33:40;0.90;;;0.90;;
50002;SDS011;35889;51.442;6.408;2022-11-20T01:36:07;1.00;;;1.00;;
50002;SDS011;35889;51.442;6.408;2022-11-20T01:38:33;0.90;;;0.90;;
50002;SDS011;35889;51.442;6.408;2022-11-20T01:40:58;1.00;;;1.00;;
50002;SDS011;35889;51.442;6.408;2022-11-20T01:43:24;1.00;;;1.00;;
50002;SDS011;35889;51.442;6.408;2022-11-20T01:48:22;0.90;;;0.90;;
50002;SDS011;35889;51.442;6.408;2022-11-20T01:50:49;0.80;;;0.80;;
50002;SDS011;35889;51.442;6.408;2022-11-20T01:53:16;0.93;;;0.93;;
50002;SDS011;35889;51.442;6.408;2022-11-20T01:55:45;0.90;;;0.90;;
50002;SDS011;35889;51.442;6.408;2022-11-20T01:58:16;0.95;;;0.95;;
50002;SDS011;35889;51.442;6.408;2022-11-20T02:00:48;1.00;;;1.00;;
50002;SDS011;35889;51.442;6.408;2022-11-20T02:03:15;0.90;;;0.90;;
50002;SDS011;35889;51.442;6.408;2022-11-20T02:05:43;0.80;;;0.80;;
50002;SDS011;35889;51.442;6.408;2022-11-20T02:08:17;1.00;;;1.00;;
50002;SDS011;35889;51.442;6.408;2022-11-20T02:10:42;1.00;;;1.00;;
50002;SDS011;35889;51.442;6.408;2022-11-20T02:13:08;1.00;;;1.00;;
50002;SDS011;35889;51.442;6.408;2022-11-20T02:15:52;0.95;;;0.95;;
50002;SDS011;35889;51.442;6.408;2022-11-20T02:18:18;1.00;;;1.00;;
50002;SDS011;35889;51.442;6.408;2022-11-20T02:20:45;1.00;;;1.00;;
50002;SDS011;35889;51.442;6.408;2022-11-20T02:23:12;0.90;;;0.90;;
50002;SDS011;35889;51.442;6.408;2022-11-20T02:25:44;1.00;;;1.00;;
50002;SDS011;35889;51.442;6.408;2022-11-20T02:28:10;0.90;;;0.90;;
50002;SDS011;35889;51.442;6.408;2022-11-20T02:30:36;0.90;;;0.90;;
50002;SDS011;35889;51.442;6.408;2022-11-20T02:33:01;1.00;;;1.00;;
50002;SDS011;35889;51.442;6.408;2022-11-20T02:37:53;1.00;;;1.00;;
50002;SDS011;35889;51.442;6.408;2022-11-20T02:40:19;1.00;;;1.00;;
50002;SDS011;35889;51.442;6.408;2022-11-20T02:42:45;1.00;;;1.00;;
50002;SDS011;35889;51.442;6.408;2022-11-20T02:45:11;1.00;;;1.00;;
50002;SDS011;35889;51.442;6.408;2022-11-20T02:47:36;1.00;;;1.00;;
50002;SDS011;35889;51.442;6.408;2022-11-20T02:50:02;1.00;;;1.00;;
50002;SDS011;35889;51.442;6.408;2022-11-20T02:52:28;1.00;;;1.00;;
50002;SDS011;35889;51.442;6.408;2022-11-20T02:54:53;1.00;;;1.00;;
50002;SDS011;35889;51.442;6.408;2022-11-20T02:57:19;1.00;;;1.00;;
50002;SDS011;35889;51.442;6.408;2022-11-20T02:59:44;1.00;;;1.00;;
50002;SDS011;35889;51.442;6.408;2022-11-20T03:02:10;1.00;;;1.00;;
50002;SDS011;35889;51.442;6.408;2022-11-20T03:04:35;1.00;;;1.00;;
50002;SDS011;35889;51.442;6.408;2022-11-20T03:07:01;1.00;;;1.00;;
50002;SDS011;35889;51.442;6.408;2022-11-20T03:09:27;1.00;;;1.00;;
50002;SDS011;35889;51.442;6.408;2022-11-20T03:11:52;1.00;;;1.00;;
50002;SDS011;35889;51.442;6.408;2022-11-20T03:14:17;1.00;;;1.00;;
50002;SDS011;35889;51.442;6.408;2022-11-20T03:16:43;1.10;;;1.10;;
50002;SDS011;35889;51.442;6.408;2022-11-20T03:19:08;1.10;;;1.10;;
50002;SDS011;35889;51.442;6.408;2022-11-20T03:21:34;1.00;;;1.00;;
50002;SDS011;35889;51.442;6.408;2022-11-20T03:24:00;1.00;;;1.00;;
50002;SDS011;35889;51.442;6.408;2022-11-20T03:26:26;1.00;;;1.00;;
50002;SDS011;35889;51.442;6.408;2022-11-20T03:28:53;0.90;;;0.90;;
50002;SDS011;35889;51.442;6.408;2022-11-20T03:31:21;1.00;;;1.00;;
50002;SDS011;35889;51.442;6.408;2022-11-20T03:33:48;1.00;;;1.00;;
50002;SDS011;35889;51.442;6.408;2022-11-20T03:36:14;1.10;;;1.10;;
50002;SDS011;35889;51.442;6.408;2022-11-20T03:38:41;1.00;;;1.00;;
50002;SDS011;35889;51.442;6.408;2022-11-20T03:41:10;0.93;;;0.93;;
50002;SDS011;35889;51.442;6.408;2022-11-20T03:43:36;1.00;;;1.00;;
50002;SDS011;35889;51.442;6.408;2022-11-20T03:46:02;1.00;;;1.00;;
50002;SDS011;35889;51.442;6.408;2022-11-20T03:48:28;1.00;;;1.00;;
50002;SDS011;35889;51.442;6.408;2022-11-20T03:51:06;0.90;;;0.90;;
50002;SDS011;35889;51.442;6.408;2022-11-20T03:53:32;1.00;;;1.00;;
50002;SDS011;35889;51.442;6.408;2022-11-20T03:55:57;1.00;;;1.00;;
50002;SDS011;35889;51.442;6.408;2022-11-20T03:58:23;1.00;;;1.00;;
50002;SDS011;35889;51.442;6.408;2022-11-20T04:00:48;1.10;;;1.10;;
50002;SDS011;35889;51.442;6.408;2022-11-20T04:03:13;1.00;;;1.00;;
50002;SDS011;35889;51.442;6.408;2022-11-20T04:05:39;1.00;;;1.00;;
50002;SDS011;35889;51.442;6.408;2022-11-20T04:08:04;1.00;;;1.00;;
50002;SDS011;35889;51.442;6.408;2022-11-20T04:10:30;1.00;;;1.00;;
50002;SDS011;35889;51.442;6.408;2022-11-20T04:12:56;1.10;;;1.10;;
50002;SDS011;35889;51.442;6.408;2022-11-20T04:15:27;1.00;;;1.00;;
50002;SDS011;35889;51.442;6.408;2022-11-20T04:17:53;1.10;;;1.10;;
50002;SDS011;35889;51.442;6.408;2022-11-20T04:20:19;1.00;;;1.00;;
50002;SDS011;35889;51.442;6.408;2022-11-20T04:22:44;0.90;;;0.90;;
50002;SDS011;35889;51.442;6.408;2022-11-20T04:25:10;1.00;;;1.00;;
50002;SDS011;35889;51.442;6.408;2022-11-20T04:27:35;0.90;;;0.90;;
50002;SDS011;35889;51.442;6.408;2022-11-20T04:30:00;1.00;;;1.00;;
50002;SDS011;35889;51.442;6.408;2022-11-20T04:32:29;0.90;;;0.90;;
50002;SDS011;35889;51.442;6.408;2022-11-20T04:34:54;1.00;;;1.00;;
50002;SDS011;35889;51.442;6.408;2022-11-20T04:37:20;1.10;;;1.10;;
50002;SDS011;35889;51.442;6.408;2022-11-20T04:39:45;0.93;;;0.93;;
50002;SDS011;35889;51.442;6.408;2022-11-20T04:42:10;1.00;;;1.00;;
50002;SDS011;35889;51.442;6.408;2022-11-20T04:44:54;1.00;;;1.00;;
50002;SDS011;35889;51.442;6.408;2022-11-20T04:47:20;1.00;;;1.00;;
50002;SDS011;35889;51.442;6.408;2022-11-20T04:49:45;1.00;;;1.00;;
50002;SDS011;35889;51.442;6.408;2022-11-20T04:52:11;0.90;;;0.90;;
50002;SDS011;35889;51.442;6.408;2022-11-20T04:54:36;0.90;;;0.90;;
50002;SDS011;35889;51.442;6.408;2022-11-20T04:57:01;0.90;;;0.90;;
50002;SDS011;35889;51.442;6.408;2022-11-20T04:59:27;1.00;;;1.00;;
50002;SDS011;35889;51.442;6.408;2022-11-20T05:01:52;1.00;;;1.00;;
50002;SDS011;35889;51.442;6.408;2022-11-20T05:04:18;1.00;;;1.00;;
50002;SDS011;35889;51.442;6.408;2022-11-20T05:06:43;1.00;;;1.00;;
50002;SDS011;35889;51.442;6.408;2022-11-20T05:09:10;0.95;;;0.95;;
50002;SDS011;35889;51.442;6.408;2022-11-20T05:11:36;1.00;;;1.00;;
50002;SDS011;35889;51.442;6.408;2022-11-20T05:14:01;1.00;;;1.00;;
50002;SDS011;35889;51.442;6.408;2022-11-20T05:16:27;1.08;;;1.08;;
50002;SDS011;35889;51.442;6.408;2022-11-20T05:18:53;0.90;;;0.90;;
50002;SDS011;35889;51.442;6.408;2022-11-20T05:21:19;1.00;;;1.00;;
50002;SDS011;35889;51.442;6.408;2022-11-20T05:23:45;1.00;;;1.00;;
50002;SDS011;35889;51.442;6.408;2022-11-20T05:26:18;1.00;;;1.00;;
50002;SDS011;35889;51.442;6.408;2022-11-20T05:28:46;1.02;;;1.02;;
50002;SDS011;35889;51.442;6.408;2022-11-20T05:31:16;1.00;;;1.00;;
50002;SDS011;35889;51.442;6.408;2022-11-20T05:33:45;0.90;;;0.90;;
50002;SDS011;35889;51.442;6.408;2022-11-20T05:36:11;1.00;;;1.00;;
50002;SDS011;35889;51.442;6.408;2022-11-20T05:38:38;0.90;;;0.90;;
50002;SDS011;35889;51.442;6.408;2022-11-20T05:41:08;1.00;;;1.00;;
50002;SDS011;35889;51.442;6.408;2022-11-20T05:43:41;1.00;;;1.00;;
50002;SDS011;35889;51.442;6.408;2022-11-20T05:46:08;0.90;;;0.90;;
50002;SDS011;35889;51.442;6.408;2022-11-20T05:48:35;1.00;;;1.00;;
50002;SDS011;35889;51.442;6.408;2022-11-20T05:51:01;1.00;;;1.00;;
50002;SDS011;35889;51.442;6.408;2022-11-20T05:53:27;1.10;;;1.10;;
50002;SDS011;35889;51.442;6.408;2022-11-20T05:55:57;0.90;;;0.90;;
50002;SDS011;35889;51.442;6.408;2022-11-20T05:58:29;0.98;;;0.98;;
50002;SDS011;35889;51.442;6.408;2022-11-20T06:01:02;0.95;;;0.95;;
50002;SDS011;35889;51.442;6.408;2022-11-20T06:03:31;1.00;;;1.00;;
50002;SDS011;35889;51.442;6.408;2022-11-20T06:05:58;0.90;;;0.90;;
50002;SDS011;35889;51.442;6.408;2022-11-20T06:08:24;1.00;;;1.00;;
50002;SDS011;35889;51.442;6.408;2022-11-20T06:10:49;0.93;;;0.93;;
50002;SDS011;35889;51.442;6.408;2022-11-20T06:13:15;1.00;;;1.00;;
50002;SDS011;35889;51.442;6.408;2022-11-20T06:15:40;0.90;;;0.90;;
50002;SDS011;35889;51.442;6.408;2022-11-20T06:18:05;0.90;;;0.90;;
50002;SDS011;35889;51.442;6.408;2022-11-20T06:20:31;1.00;;;1.00;;
50002;SDS011;35889;51.442;6.408;2022-11-20T06:22:57;1.00;;;1.00;;
50002;SDS011;35889;51.442;6.408;2022-11-20T06:25:23;0.93;;;0.93;;
50002;SDS011;35889;51.442;6.408;2022-11-20T06:27:48;1.00;;;1.00;;
50002;SDS011;35889;51.442;6.408;2022-11-20T06:30:14;1.00;;;1.00;;
50002;SDS011;35889;51.442;6.408;2022-11-20T06:32:39;1.00;;;1.00;;
50002;SDS011;35889;51.442;6.408;2022-11-20T06:35:05;1.00;;;1.00;;
50002;SDS011;35889;51.442;6.408;2022-11-20T06:37:30;1.10;;;1.10;;
50002;SDS011;35889;51.442;6.408;2022-11-20T06:39:56;1.00;;;1.00;;
50002;SDS011;35889;51.442;6.408;2022-11-20T06:42:21;1.10;;;1.10;;
50002;SDS011;35889;51.442;6.408;2022-11-20T06:44:46;1.00;;;1.00;;
50002;SDS011;35889;51.442;6.408;2022-11-20T06:47:12;1.00;;;1.00;;
50002;SDS011;35889;51.442;6.408;2022-11-20T06:49:37;1.00;;;1.00;;
50002;SDS011;35889;51.442;6.408;2022-11-20T06:52:03;0.90;;;0.90;;
50002;SDS011;35889;51.442;6.408;2022-11-20T06:54:29;0.90;;;0.90;;
50002;SDS011;35889;51.442;6.408;2022-11-20T06:56:54;0.95;;;0.95;;
50002;SDS011;35889;51.442;6.408;2022-11-20T06:59:20;0.90;;;0.90;;
50002;SDS011;35889;51.442;6.408;2022-11-20T07:01:46;1.10;;;1.10;;
50002;SDS011;35889;51.442;6.408;2022-11-20T07:04:11;1.10;;;1.10;;
50002;SDS011;35889;51.442;6.408;2022-11-20T07:06:39;1.00;;;1.00;;
50002;SDS011;35889;51.442;6.408;2022-11-20T07:09:11;1.00;;;1.00;;
50002;SDS011;35889;51.442;6.408;2022-11-20T07:11:36;1.05;;;1.05;;
50002;SDS011;35889;51.442;6.408;2022-11-20T07:14:02;0.90;;;0.90;;
50002;SDS011;35889;51.442;6.408;2022-11-20T07:16:27;1.00;;;1.00;;
50002;SDS011;35889;51.442;6.408;2022-11-20T07:18:52;1.00;;;1.00;;
50002;SDS011;35889;51.442;6.408;2022-11-20T07:21:18;1.00;;;1.00;;
50002;SDS011;35889;51.442;6.408;2022-11-20T07:23:43;1.00;;;1.00;;
50002;SDS011;35889;51.442;6.408;2022-11-20T07:26:09;1.00;;;1.00;;
50002;SDS011;35889;51.442;6.408;2022-11-20T07:28:35;1.00;;;1.00;;
50002;SDS011;35889;51.442;6.408;2022-11-20T07:31:01;1.00;;;1.00;;
50002;SDS011;35889;51.442;6.408;2022-11-20T07:33:27;1.05;;;1.05;;
50002;SDS011;35889;51.442;6.408;2022-11-20T07:35:53;1.00;;;1.00;;
50002;SDS011;35889;51.442;6.408;2022-11-20T07:38:18;1.00;;;1.00;;
50002;SDS011;35889;51.442;6.408;2022-11-20T07:40:44;0.90;;;0.90;;
50002;SDS011;35889;51.442;6.408;2022-11-20T07:43:09;0.90;;;0.90;;
50002;SDS011;35889;51.442;6.408;2022-11-20T07:45:34;0.90;;;0.90;;
50002;SDS011;35889;51.442;6.408;2022-11-20T07:48:00;0.90;;;0.90;;
50002;SDS011;35889;51.442;6.408;2022-11-20T07:50:26;1.00;;;1.00;;
50002;SDS011;35889;51.442;6.408;2022-11-20T07:52:51;1.00;;;1.00;;
50002;SDS011;35889;51.442;6.408;2022-11-20T07:55:17;0.90;;;0.90;;
50002;SDS011;35889;51.442;6.408;2022-11-20T07:57:43;1.00;;;1.00;;
50002;SDS011;35889;51.442;6.408;2022-11-20T08:00:09;0.90;;;0.90;;
50002;SDS011;35889;51.442;6.408;2022-11-20T08:02:41;0.95;;;0.95;;
50002;SDS011;35889;51.442;6.408;2022-11-20T08:05:08;0.95;;;0.95;;
50002;SDS011;35889;51.442;6.408;2022-11-20T08:07:37;0.95;;;0.95;;
50002;SDS011;35889;51.442;6.408;2022-11-20T08:10:03;0.90;;;0.90;;
50002;SDS011;35889;51.442;6.408;2022-11-20T08:12:29;0.90;;;0.90;;
50002;SDS011;35889;51.442;6.408;2022-11-20T08:15:13;0.90;;;0.90;;
50002;SDS011;35889;51.442;6.408;2022-11-20T08:17:38;0.90;;;0.90;;
50002;SDS011;35889;51.442;6.408;2022-11-20T08:20:04;0.90;;;0.90;;
50002;SDS011;35889;51.442;6.408;2022-11-20T08:22:29;1.10;;;1.10;;
50002;SDS011;35889;51.442;6.408;2022-11-20T08:24:55;0.90;;;0.90;;
50002;SDS011;35889;51.442;6.408;2022-11-20T08:27:20;0.90;;;0.90;;
50002;SDS011;35889;51.442;6.408;2022-11-20T08:29:46;1.00;;;1.00;;
50002;SDS011;35889;51.442;6.408;2022-11-20T08:32:11;0.90;;;0.90;;
50002;SDS011;35889;51.442;6.408;2022-11-20T08:34:36;1.00;;;1.00;;
50002;SDS011;35889;51.442;6.408;2022-11-20T08:37:02;1.00;;;1.00;;
50002;SDS011;35889;51.442;6.408;2022-11-20T08:39:27;0.95;;;0.95;;
50002;SDS011;35889;51.442;6.408;2022-11-20T08:41:53;0.93;;;0.93;;
50002;SDS011;35889;51.442;6.408;2022-11-20T08:44:18;0.90;;;0.90;;
50002;SDS011;35889;51.442;6.408;2022-11-20T08:46:44;1.00;;;1.00;;
50002;SDS011;35889;51.442;6.408;2022-11-20T08:49:11;0.90;;;0.90;;
50002;SDS011;35889;51.442;6.408;2022-11-20T08:51:37;1.10;;;1.10;;
50002;SDS011;35889;51.442;6.408;2022-11-20T08:54:03;1.00;;;1.00;;
50002;SDS011;35889;51.442;6.408;2022-11-20T08:56:29;1.00;;;1.00;;
50002;SDS011;35889;51.442;6.408;2022-11-20T08:58:55;1.00;;;1.00;;
50002;SDS011;35889;51.442;6.408;2022-11-20T09:01:21;1.00;;;1.00;;
50002;SDS011;35889;51.442;6.408;2022-11-20T09:03:48;1.00;;;1.00;;
50002;SDS011;35889;51.442;6.408;2022-11-20T09:06:14;0.90;;;0.90;;
50002;SDS011;35889;51.442;6.408;2022-11-20T09:08:39;1.00;;;1.00;;
50002;SDS011;35889;51.442;6.408;2022-11-20T09:11:05;0.90;;;0.90;;
50002;SDS011;35889;51.442;6.408;2022-11-20T09:13:31;0.95;;;0.95;;
50002;SDS011;35889;51.442;6.408;2022-11-20T09:16:01;1.00;;;1.00;;
50002;SDS011;35889;51.442;6.408;2022-11-20T09:18:28;1.00;;;1.00;;
50002;SDS011;35889;51.442;6.408;2022-11-20T09:20:56;1.00;;;1.00;;
50002;SDS011;35889;51.442;6.408;2022-11-20T09:23:22;0.90;;;0.90;;
50002;SDS011;35889;51.442;6.408;2022-11-20T09:25:48;0.90;;;0.90;;
50002;SDS011;35889;51.442;6.408;2022-11-20T09:28:13;0.90;;;0.90;;
50002;SDS011;35889;51.442;6.408;2022-11-20T09:30:38;0.98;;;0.98;;
50002;SDS011;35889;51.442;6.408;2022-11-20T09:33:04;1.00;;;1.00;;
50002;SDS011;35889;51.442;6.408;2022-11-20T09:35:31;0.90;;;0.90;;
50002;SDS011;35889;51.442;6.408;2022-11-20T09:37:57;0.90;;;0.90;;
50002;SDS011;35889;51.442;6.408;2022-11-20T09:40:23;0.90;;;0.90;;
50002;SDS011;35889;51.442;6.408;2022-11-20T09:51:50;0.98;;;0.98;;
50002;SDS011;35889;51.442;6.408;2022-11-20T09:54:22;0.90;;;0.90;;
50002;SDS011;35889;51.442;6.408;2022-11-20T09:57:02;0.90;;;0.90;;
50002;SDS011;35889;51.442;6.408;2022-11-20T09:59:32;0.95;;;0.95;;
50002;SDS011;35889;51.442;6.408;2022-11-20T10:02:14;0.82;;;0.82;;
50002;SDS011;35889;51.442;6.408;2022-11-20T10:04:48;0.88;;;0.88;;
50002;SDS011;35889;51.442;6.408;2022-11-20T10:08:01;0.90;;;0.90;;
50002;SDS011;35889;51.442;6.408;2022-11-20T10:10:29;1.00;;;1.00;;
50002;SDS011;35889;51.442;6.408;2022-11-20T10:13:22;0.90;;;0.90;;
50002;SDS011;35889;51.442;6.408;2022-11-20T10:18:31;0.88;;;0.88;;
50002;SDS011;35889;51.442;6.408;2022-11-20T10:29:39;0.80;;;0.80;;
50002;SDS011;35889;51.442;6.408;2022-11-20T10:32:11;0.90;;;0.90;;
50002;SDS011;35889;51.442;6.408;2022-11-20T10:34:49;0.90;;;0.90;;
50002;SDS011;35889;51.442;6.408;2022-11-20T10:37:18;0.80;;;0.80;;
50002;SDS011;35889;51.442;6.408;2022-11-20T10:47:48;0.90;;;0.90;;
50002;SDS011;35889;51.442;6.408;2022-11-20T10:50:15;0.90;;;0.90;;
50002;SDS011;35889;51.442;6.408;2022-11-20T10:55:25;0.80;;;0.80;;
50002;SDS011;35889;51.442;6.408;2022-11-20T11:00:46;0.90;;;0.90;;
50002;SDS011;35889;51.442;6.408;2022-11-20T11:03:28;0.80;;;0.80;;
50002;SDS011;35889;51.442;6.408;2022-11-20T11:08:20;0.93;;;0.93;;
50002;SDS011;35889;51.442;6.408;2022-11-20T11:10:47;0.90;;;0.90;;
50002;SDS011;35889;51.442;6.408;2022-11-20T11:15:45;0.85;;;0.85;;
50002;SDS011;35889;51.442;6.408;2022-11-20T11:18:11;0.90;;;0.90;;
50002;SDS011;35889;51.442;6.408;2022-11-20T11:20:37;0.90;;;0.90;;
50002;SDS011;35889;51.442;6.408;2022-11-20T11:23:02;0.80;;;0.80;;
50002;SDS011;35889;51.442;6.408;2022-11-20T11:25:33;0.80;;;0.80;;
50002;SDS011;35889;51.442;6.408;2022-11-20T11:30:27;0.70;;;0.70;;
50002;SDS011;35889;51.442;6.408;2022-11-20T11:33:09;0.80;;;0.80;;
50002;SDS011;35889;51.442;6.408;2022-11-20T11:35:46;0.90;;;0.90;;
50002;SDS011;35889;51.442;6.408;2022-11-20T11:38:17;0.80;;;0.80;;
50002;SDS011;35889;51.442;6.408;2022-11-20T11:40:46;0.90;;;0.90;;
50002;SDS011;35889;51.442;6.408;2022-11-20T11:43:22;0.80;;;0.80;;
50002;SDS011;35889;51.442;6.408;2022-11-20T11:46:55;0.90;;;0.90;;
50002;SDS011;35889;51.442;6.408;2022-11-20T11:49:17;0.70;;;0.70;;
50002;SDS011;35889;51.442;6.408;2022-11-20T12:02:36;0.80;;;0.80;;
50002;SDS011;35889;51.442;6.408;2022-11-20T12:05:13;0.90;;;0.90;;
50002;SDS011;35889;51.442;6.408;2022-11-20T12:07:45;0.90;;;0.90;;
50002;SDS011;35889;51.442;6.408;2022-11-20T12:10:15;0.70;;;0.70;;
50002;SDS011;35889;51.442;6.408;2022-11-20T12:12:55;0.85;;;0.85;;
50002;SDS011;35889;51.442;6.408;2022-11-20T12:15:29;0.80;;;0.80;;
50002;SDS011;35889;51.442;6.408;2022-11-20T12:17:55;0.80;;;0.80;;
50002;SDS011;35889;51.442;6.408;2022-11-20T12:20:33;0.70;;;0.70;;
50002;SDS011;35889;51.442;6.408;2022-11-20T12:23:08;1.00;;;1.00;;
50002;SDS011;35889;51.442;6.408;2022-11-20T12:25:36;0.90;;;0.90;;
50002;SDS011;35889;51.442;6.408;2022-11-20T12:33:53;0.80;;;0.80;;
50002;SDS011;35889;51.442;6.408;2022-11-20T12:36:49;0.80;;;0.80;;
50002;SDS011;35889;51.442;6.408;2022-11-20T12:39:26;0.80;;;0.80;;
50002;SDS011;35889;51.442;6.408;2022-11-20T12:45:14;0.70;;;0.70;;
50002;SDS011;35889;51.442;6.408;2022-11-20T12:50:55;0.77;;;0.77;;
50002;SDS011;35889;51.442;6.408;2022-11-20T13:07:10;0.90;;;0.90;;
50002;SDS011;35889;51.442;6.408;2022-11-20T13:09:43;0.90;;;0.90;;
50002;SDS011;35889;51.442;6.408;2022-11-20T13:12:29;0.80;;;0.80;;
50002;SDS011;35889;51.442;6.408;2022-11-20T13:20:16;0.80;;;0.80;;
50002;SDS011;35889;51.442;6.408;2022-11-20T13:22:44;0.80;;;0.80;;
50002;SDS011;35889;51.442;6.408;2022-11-20T13:26:02;0.85;;;0.85;;
50002;SDS011;35889;51.442;6.408;2022-11-20T13:28:00;0.80;;;0.80;;
50002;SDS011;35889;51.442;6.408;2022-11-20T13:30:29;0.70;;;0.70;;
50002;SDS011;35889;51.442;6.408;2022-11-20T13:33:02;0.80;;;0.80;;
50002;SDS011;35889;51.442;6.408;2022-11-20T13:35:35;0.80;;;0.80;;
50002;SDS011;35889;51.442;6.408;2022-11-20T13:38:12;0.73;;;0.73;;
50002;SDS011;35889;51.442;6.408;2022-11-20T13:43:27;0.80;;;0.80;;
50002;SDS011;35889;51.442;6.408;2022-11-20T13:46:05;0.90;;;0.90;;
50002;SDS011;35889;51.442;6.408;2022-11-20T13:48:41;0.70;;;0.70;;
50002;SDS011;35889;51.442;6.408;2022-11-20T13:51:14;0.80;;;0.80;;
50002;SDS011;35889;51.442;6.408;2022-11-20T13:56:48;0.80;;;0.80;;
50002;SDS011;35889;51.442;6.408;2022-11-20T14:02:22;0.80;;;0.80;;
50002;SDS011;35889;51.442;6.408;2022-11-20T14:04:51;0.80;;;0.80;;
50002;SDS011;35889;51.442;6.408;2022-11-20T14:07:18;0.80;;;0.80;;
50002;SDS011;35889;51.442;6.408;2022-11-20T14:09:52;0.80;;;0.80;;
50002;SDS011;35889;51.442;6.408;2022-11-20T14:12:26;0.80;;;0.80;;
50002;SDS011;35889;51.442;6.408;2022-11-20T14:14:56;0.80;;;0.80;;
50002;SDS011;35889;51.442;6.408;2022-11-20T14:17:34;0.70;;;0.70;;
50002;SDS011;35889;51.442;6.408;2022-11-20T14:20:05;0.80;;;0.80;;
50002;SDS011;35889;51.442;6.408;2022-11-20T14:22:32;0.80;;;0.80;;
50002;SDS011;35889;51.442;6.408;2022-11-20T14:27:55;0.80;;;0.80;;
50002;SDS011;35889;51.442;6.408;2022-11-20T14:30:29;0.80;;;0.80;;
50002;SDS011;35889;51.442;6.408;2022-11-20T14:33:03;0.80;;;0.80;;
50002;SDS011;35889;51.442;6.408;2022-11-20T14:35:29;0.90;;;0.90;;
50002;SDS011;35889;51.442;6.408;2022-11-20T14:38:00;0.80;;;0.80;;
50002;SDS011;35889;51.442;6.408;2022-11-20T14:40:35;0.85;;;0.85;;
50002;SDS011;35889;51.442;6.408;2022-11-20T14:43:02;0.85;;;0.85;;
50002;SDS011;35889;51.442;6.408;2022-11-20T14:45:40;0.80;;;0.80;;
50002;SDS011;35889;51.442;6.408;2022-11-20T14:48:08;0.90;;;0.90;;
50002;SDS011;35889;51.442;6.408;2022-11-20T14:50:34;0.80;;;0.80;;
50002;SDS011;35889;51.442;6.408;2022-11-20T14:53:00;0.90;;;0.90;;
50002;SDS011;35889;51.442;6.408;2022-11-20T14:58:04;0.80;;;0.80;;
50002;SDS011;35889;51.442;6.408;2022-11-20T15:00:31;0.80;;;0.80;;
50002;SDS011;35889;51.442;6.408;2022-11-20T15:02:57;0.80;;;0.80;;
50002;SDS011;35889;51.442;6.408;2022-11-20T15:05:25;0.80;;;0.80;;
50002;SDS011;35889;51.442;6.408;2022-11-20T15:08:04;0.80;;;0.80;;
50002;SDS011;35889;51.442;6.408;2022-11-20T15:10:33;0.73;;;0.73;;
50002;SDS011;35889;51.442;6.408;2022-11-20T15:13:10;0.80;;;0.80;;
50002;SDS011;35889;51.442;6.408;2022-11-20T15:18:11;0.80;;;0.80;;
50002;SDS011;35889;51.442;6.408;2022-11-20T15:20:37;0.80;;;0.80;;
50002;SDS011;35889;51.442;6.408;2022-11-20T15:23:08;0.75;;;0.75;;
50002;SDS011;35889;51.442;6.408;2022-11-20T15:25:41;0.80;;;0.80;;
50002;SDS011;35889;51.442;6.408;2022-11-20T15:28:29;0.80;;;0.80;;
50002;SDS011;35889;51.442;6.408;2022-11-20T15:30:54;0.80;;;0.80;;
50002;SDS011;35889;51.442;6.408;2022-11-20T15:33:21;0.80;;;0.80;;
50002;SDS011;35889;51.442;6.408;2022-11-20T15:35:47;0.80;;;0.80;;
50002;SDS011;35889;51.442;6.408;2022-11-20T15:38:12;0.70;;;0.70;;
50002;SDS011;35889;51.442;6.408;2022-11-20T15:40:38;0.80;;;0.80;;
50002;SDS011;35889;51.442;6.408;2022-11-20T15:43:03;0.80;;;0.80;;
50002;SDS011;35889;51.442;6.408;2022-11-20T15:45:42;0.80;;;0.80;;
50002;SDS011;35889;51.442;6.408;2022-11-20T15:48:15;0.80;;;0.80;;
50002;SDS011;35889;51.442;6.408;2022-11-20T15:50:59;0.90;;;0.90;;
50002;SDS011;35889;51.442;6.408;2022-11-20T15:53:32;0.80;;;0.80;;
50002;SDS011;35889;51.442;6.408;2022-11-20T15:55:57;0.80;;;0.80;;
50002;SDS011;35889;51.442;6.408;2022-11-20T15:58:23;0.80;;;0.80;;
50002;SDS011;35889;51.442;6.408;2022-11-20T16:00:49;0.80;;;0.80;;
50002;SDS011;35889;51.442;6.408;2022-11-20T16:03:15;0.80;;;0.80;;
50002;SDS011;35889;51.442;6.408;2022-11-20T16:05:41;0.80;;;0.80;;
50002;SDS011;35889;51.442;6.408;2022-11-20T16:08:07;0.80;;;0.80;;
50002;SDS011;35889;51.442;6.408;2022-11-20T16:10:32;0.80;;;0.80;;
50002;SDS011;35889;51.442;6.408;2022-11-20T16:12:58;0.75;;;0.75;;
50002;SDS011;35889;51.442;6.408;2022-11-20T16:15:42;0.90;;;0.90;;
50002;SDS011;35889;51.442;6.408;2022-11-20T16:18:10;0.77;;;0.77;;
50002;SDS011;35889;51.442;6.408;2022-11-20T16:20:36;0.80;;;0.80;;
50002;SDS011;35889;51.442;6.408;2022-11-20T16:23:03;0.80;;;0.80;;
50002;SDS011;35889;51.442;6.408;2022-11-20T16:25:28;0.70;;;0.70;;
50002;SDS011;35889;51.442;6.408;2022-11-20T16:27:54;0.90;;;0.90;;
50002;SDS011;35889;51.442;6.408;2022-11-20T16:30:19;0.70;;;0.70;;
50002;SDS011;35889;51.442;6.408;2022-11-20T16:32:45;0.80;;;0.80;;
50002;SDS011;35889;51.442;6.408;2022-11-20T16:35:11;0.80;;;0.80;;
50002;SDS011;35889;51.442;6.408;2022-11-20T16:37:37;0.80;;;0.80;;
50002;SDS011;35889;51.442;6.408;2022-11-20T16:40:03;0.70;;;0.70;;
50002;SDS011;35889;51.442;6.408;2022-11-20T16:42:32;0.90;;;0.90;;